sensor_id;sensor_type;location;lat;lon;timestamp;P1;durP1;ratioP1;P2;durP2;ratioP2
80247;SDS011;69560;52.206;21.018;2024-01-30T00:00:41;56.70;;;32.50;;
80247;SDS011;69560;52.206;21.018;2024-01-30T00:03:27;56.60;;;32.00;;
80247;SDS011;69560;52.206;21.018;2024-01-30T00:05:55;47.90;;;27.70;;
80247;SDS011;69560;52.206;21.018;2024-01-30T00:08:22;54.50;;;31.50;;
80247;SDS011;69560;52.206;21.018;2024-01-30T00:10:49;59.60;;;33.20;;
80247;SDS011;69560;52.206;21.018;2024-01-30T00:13:15;60.60;;;33.60;;
80247;SDS011;69560;52.206;21.018;2024-01-30T00:15:43;57.10;;;33.30;;
80247;SDS011;69560;52.206;21.018;2024-01-30T00:18:10;62.60;;;33.90;;
80247;SDS011;69560;52.206;21.018;2024-01-30T00:20:37;62.10;;;32.30;;
80247;SDS011;69560;52.206;21.018;2024-01-30T00:23:04;55.10;;;32.50;;
80247;SDS011;69560;52.206;21.018;2024-01-30T00:25:30;57.90;;;30.20;;
80247;SDS011;69560;52.206;21.018;2024-01-30T00:27:59;49.60;;;30.20;;
80247;SDS011;69560;52.206;21.018;2024-01-30T00:30:25;53.10;;;30.50;;
80247;SDS011;69560;52.206;21.018;2024-01-30T00:32:53;56.20;;;31.80;;
80247;SDS011;69560;52.206;21.018;2024-01-30T00:35:20;57.60;;;32.40;;
80247;SDS011;69560;52.206;21.018;2024-01-30T00:37:48;55.90;;;33.00;;
80247;SDS011;69560;52.206;21.018;2024-01-30T00:40:14;52.50;;;31.30;;
80247;SDS011;69560;52.206;21.018;2024-01-30T00:42:42;57.80;;;32.90;;
80247;SDS011;69560;52.206;21.018;2024-01-30T00:45:13;57.50;;;32.60;;
80247;SDS011;69560;52.206;21.018;2024-01-30T00:47:40;61.10;;;33.10;;
80247;SDS011;69560;52.206;21.018;2024-01-30T00:50:07;59.40;;;34.90;;
80247;SDS011;69560;52.206;21.018;2024-01-30T00:52:34;54.40;;;31.50;;
80247;SDS011;69560;52.206;21.018;2024-01-30T00:55:01;54.90;;;32.50;;
80247;SDS011;69560;52.206;21.018;2024-01-30T00:57:29;62.10;;;33.50;;
80247;SDS011;69560;52.206;21.018;2024-01-30T00:59:55;54.40;;;32.20;;
80247;SDS011;69560;52.206;21.018;2024-01-30T01:02:21;55.90;;;30.90;;
80247;SDS011;69560;52.206;21.018;2024-01-30T01:04:48;54.20;;;31.30;;
80247;SDS011;69560;52.206;21.018;2024-01-30T01:07:14;59.20;;;32.70;;
80247;SDS011;69560;52.206;21.018;2024-01-30T01:09:41;55.30;;;32.10;;
80247;SDS011;69560;52.206;21.018;2024-01-30T01:12:07;59.00;;;33.30;;
80247;SDS011;69560;52.206;21.018;2024-01-30T01:14:34;60.90;;;33.20;;
80247;SDS011;69560;52.206;21.018;2024-01-30T01:17:00;59.40;;;33.50;;
80247;SDS011;69560;52.206;21.018;2024-01-30T01:19:27;55.30;;;30.70;;
80247;SDS011;69560;52.206;21.018;2024-01-30T01:21:53;50.30;;;28.00;;
80247;SDS011;69560;52.206;21.018;2024-01-30T01:24:20;51.10;;;30.00;;
80247;SDS011;69560;52.206;21.018;2024-01-30T01:26:47;54.50;;;30.30;;
80247;SDS011;69560;52.206;21.018;2024-01-30T01:29:13;56.50;;;30.60;;
80247;SDS011;69560;52.206;21.018;2024-01-30T01:31:41;54.90;;;30.50;;
80247;SDS011;69560;52.206;21.018;2024-01-30T01:34:12;57.60;;;32.50;;
80247;SDS011;69560;52.206;21.018;2024-01-30T01:36:39;63.00;;;34.00;;
80247;SDS011;69560;52.206;21.018;2024-01-30T01:39:05;58.50;;;33.50;;
80247;SDS011;69560;52.206;21.018;2024-01-30T01:41:32;54.50;;;31.30;;
80247;SDS011;69560;52.206;21.018;2024-01-30T01:43:59;54.00;;;31.10;;
80247;SDS011;69560;52.206;21.018;2024-01-30T01:46:26;55.20;;;31.50;;
80247;SDS011;69560;52.206;21.018;2024-01-30T01:48:56;59.60;;;32.30;;
80247;SDS011;69560;52.206;21.018;2024-01-30T01:51:23;59.10;;;32.70;;
80247;SDS011;69560;52.206;21.018;2024-01-30T01:53:53;54.50;;;31.60;;
80247;SDS011;69560;52.206;21.018;2024-01-30T01:56:22;57.20;;;31.80;;
80247;SDS011;69560;52.206;21.018;2024-01-30T01:58:49;56.10;;;32.60;;
80247;SDS011;69560;52.206;21.018;2024-01-30T02:01:20;57.60;;;34.00;;
80247;SDS011;69560;52.206;21.018;2024-01-30T02:03:47;56.90;;;32.70;;
80247;SDS011;69560;52.206;21.018;2024-01-30T02:06:14;57.60;;;32.90;;
80247;SDS011;69560;52.206;21.018;2024-01-30T02:08:41;58.60;;;31.40;;
80247;SDS011;69560;52.206;21.018;2024-01-30T02:11:08;57.00;;;32.60;;
80247;SDS011;69560;52.206;21.018;2024-01-30T02:13:40;45.10;;;27.50;;
80247;SDS011;69560;52.206;21.018;2024-01-30T02:16:07;55.40;;;31.50;;
80247;SDS011;69560;52.206;21.018;2024-01-30T02:18:33;55.80;;;31.40;;
80247;SDS011;69560;52.206;21.018;2024-01-30T02:21:07;55.20;;;31.80;;
80247;SDS011;69560;52.206;21.018;2024-01-30T02:23:37;56.20;;;32.20;;
80247;SDS011;69560;52.206;21.018;2024-01-30T02:26:05;55.30;;;31.90;;
80247;SDS011;69560;52.206;21.018;2024-01-30T02:28:32;53.30;;;30.70;;
80247;SDS011;69560;52.206;21.018;2024-01-30T02:30:58;51.50;;;29.10;;
80247;SDS011;69560;52.206;21.018;2024-01-30T02:33:25;49.70;;;29.00;;
80247;SDS011;69560;52.206;21.018;2024-01-30T02:35:51;51.80;;;28.80;;
80247;SDS011;69560;52.206;21.018;2024-01-30T02:38:18;55.60;;;31.40;;
80247;SDS011;69560;52.206;21.018;2024-01-30T02:40:44;54.80;;;30.30;;
80247;SDS011;69560;52.206;21.018;2024-01-30T02:43:11;59.60;;;32.60;;
80247;SDS011;69560;52.206;21.018;2024-01-30T02:45:37;54.10;;;32.10;;
80247;SDS011;69560;52.206;21.018;2024-01-30T02:48:04;50.50;;;29.60;;
80247;SDS011;69560;52.206;21.018;2024-01-30T02:50:31;53.10;;;30.70;;
80247;SDS011;69560;52.206;21.018;2024-01-30T02:52:57;52.00;;;32.00;;
80247;SDS011;69560;52.206;21.018;2024-01-30T02:55:24;50.50;;;29.80;;
80247;SDS011;69560;52.206;21.018;2024-01-30T02:57:50;51.90;;;29.60;;
80247;SDS011;69560;52.206;21.018;2024-01-30T03:00:18;54.10;;;30.70;;
80247;SDS011;69560;52.206;21.018;2024-01-30T03:02:45;51.00;;;29.40;;
80247;SDS011;69560;52.206;21.018;2024-01-30T03:05:12;52.10;;;30.50;;
80247;SDS011;69560;52.206;21.018;2024-01-30T03:07:38;53.80;;;29.90;;
80247;SDS011;69560;52.206;21.018;2024-01-30T03:10:05;57.90;;;30.80;;
80247;SDS011;69560;52.206;21.018;2024-01-30T03:12:35;55.10;;;30.60;;
80247;SDS011;69560;52.206;21.018;2024-01-30T03:15:01;52.60;;;29.10;;
80247;SDS011;69560;52.206;21.018;2024-01-30T03:17:28;49.00;;;28.00;;
80247;SDS011;69560;52.206;21.018;2024-01-30T03:19:54;54.80;;;30.70;;
80247;SDS011;69560;52.206;21.018;2024-01-30T03:22:21;53.40;;;28.30;;
80247;SDS011;69560;52.206;21.018;2024-01-30T03:24:47;49.80;;;28.60;;
80247;SDS011;69560;52.206;21.018;2024-01-30T03:27:14;53.40;;;30.90;;
80247;SDS011;69560;52.206;21.018;2024-01-30T03:29:40;53.90;;;29.20;;
80247;SDS011;69560;52.206;21.018;2024-01-30T03:32:06;50.30;;;29.20;;
80247;SDS011;69560;52.206;21.018;2024-01-30T03:34:33;48.70;;;27.20;;
80247;SDS011;69560;52.206;21.018;2024-01-30T03:37:00;44.10;;;26.70;;
80247;SDS011;69560;52.206;21.018;2024-01-30T03:39:26;48.30;;;28.50;;
80247;SDS011;69560;52.206;21.018;2024-01-30T03:41:53;49.80;;;27.30;;
80247;SDS011;69560;52.206;21.018;2024-01-30T03:44:19;52.20;;;28.50;;
80247;SDS011;69560;52.206;21.018;2024-01-30T03:46:46;48.10;;;28.30;;
80247;SDS011;69560;52.206;21.018;2024-01-30T03:49:12;52.00;;;30.30;;
80247;SDS011;69560;52.206;21.018;2024-01-30T03:51:39;50.00;;;28.10;;
80247;SDS011;69560;52.206;21.018;2024-01-30T03:54:05;49.20;;;27.50;;
80247;SDS011;69560;52.206;21.018;2024-01-30T03:56:32;51.50;;;28.20;;
80247;SDS011;69560;52.206;21.018;2024-01-30T03:58:58;52.30;;;29.00;;
80247;SDS011;69560;52.206;21.018;2024-01-30T04:01:26;52.60;;;30.20;;
80247;SDS011;69560;52.206;21.018;2024-01-30T04:03:53;53.30;;;29.90;;
80247;SDS011;69560;52.206;21.018;2024-01-30T04:06:19;57.90;;;32.00;;
80247;SDS011;69560;52.206;21.018;2024-01-30T04:08:46;53.40;;;29.90;;
80247;SDS011;69560;52.206;21.018;2024-01-30T04:11:12;50.10;;;28.80;;
80247;SDS011;69560;52.206;21.018;2024-01-30T04:13:39;48.40;;;27.90;;
80247;SDS011;69560;52.206;21.018;2024-01-30T04:16:06;45.70;;;27.30;;
80247;SDS011;69560;52.206;21.018;2024-01-30T04:18:34;49.70;;;27.90;;
80247;SDS011;69560;52.206;21.018;2024-01-30T04:21:00;48.40;;;28.10;;
80247;SDS011;69560;52.206;21.018;2024-01-30T04:23:27;50.60;;;29.00;;
80247;SDS011;69560;52.206;21.018;2024-01-30T04:25:53;53.50;;;30.20;;
80247;SDS011;69560;52.206;21.018;2024-01-30T04:28:20;56.40;;;31.00;;
80247;SDS011;69560;52.206;21.018;2024-01-30T04:30:46;54.60;;;28.40;;
80247;SDS011;69560;52.206;21.018;2024-01-30T04:33:13;52.90;;;29.50;;
80247;SDS011;69560;52.206;21.018;2024-01-30T04:35:39;51.50;;;27.10;;
80247;SDS011;69560;52.206;21.018;2024-01-30T04:38:06;50.50;;;28.50;;
80247;SDS011;69560;52.206;21.018;2024-01-30T04:40:32;48.30;;;28.20;;
80247;SDS011;69560;52.206;21.018;2024-01-30T04:42:58;54.20;;;29.80;;
80247;SDS011;69560;52.206;21.018;2024-01-30T04:45:25;53.20;;;29.10;;
80247;SDS011;69560;52.206;21.018;2024-01-30T04:47:51;52.70;;;28.80;;
80247;SDS011;69560;52.206;21.018;2024-01-30T04:50:18;51.10;;;28.90;;
80247;SDS011;69560;52.206;21.018;2024-01-30T04:52:45;54.20;;;30.40;;
80247;SDS011;69560;52.206;21.018;2024-01-30T04:55:11;47.60;;;28.70;;
80247;SDS011;69560;52.206;21.018;2024-01-30T04:57:38;52.70;;;29.90;;
80247;SDS011;69560;52.206;21.018;2024-01-30T05:00:04;53.80;;;29.80;;
80247;SDS011;69560;52.206;21.018;2024-01-30T05:02:31;54.00;;;29.00;;
80247;SDS011;69560;52.206;21.018;2024-01-30T05:04:58;52.70;;;29.60;;
80247;SDS011;69560;52.206;21.018;2024-01-30T05:07:24;52.30;;;29.50;;
80247;SDS011;69560;52.206;21.018;2024-01-30T05:09:52;51.10;;;29.30;;
80247;SDS011;69560;52.206;21.018;2024-01-30T05:12:18;49.40;;;28.80;;
80247;SDS011;69560;52.206;21.018;2024-01-30T05:14:45;51.00;;;29.10;;
80247;SDS011;69560;52.206;21.018;2024-01-30T05:17:11;56.10;;;30.00;;
80247;SDS011;69560;52.206;21.018;2024-01-30T05:19:42;55.00;;;29.40;;
80247;SDS011;69560;52.206;21.018;2024-01-30T05:22:10;51.20;;;29.80;;
80247;SDS011;69560;52.206;21.018;2024-01-30T05:24:36;49.80;;;29.70;;
80247;SDS011;69560;52.206;21.018;2024-01-30T05:27:03;51.60;;;30.00;;
80247;SDS011;69560;52.206;21.018;2024-01-30T05:29:30;51.50;;;28.90;;
80247;SDS011;69560;52.206;21.018;2024-01-30T05:31:56;48.80;;;28.70;;
80247;SDS011;69560;52.206;21.018;2024-01-30T05:34:23;43.00;;;25.20;;
80247;SDS011;69560;52.206;21.018;2024-01-30T05:36:50;49.00;;;27.20;;
80247;SDS011;69560;52.206;21.018;2024-01-30T05:39:16;51.30;;;28.30;;
80247;SDS011;69560;52.206;21.018;2024-01-30T05:41:42;51.00;;;28.00;;
80247;SDS011;69560;52.206;21.018;2024-01-30T05:44:09;52.30;;;28.70;;
80247;SDS011;69560;52.206;21.018;2024-01-30T05:46:36;52.30;;;30.40;;
80247;SDS011;69560;52.206;21.018;2024-01-30T05:49:02;53.50;;;29.60;;
80247;SDS011;69560;52.206;21.018;2024-01-30T05:51:29;55.30;;;30.30;;
80247;SDS011;69560;52.206;21.018;2024-01-30T05:53:55;51.20;;;28.40;;
80247;SDS011;69560;52.206;21.018;2024-01-30T05:56:22;51.20;;;27.40;;
80247;SDS011;69560;52.206;21.018;2024-01-30T05:58:48;46.90;;;26.30;;
80247;SDS011;69560;52.206;21.018;2024-01-30T06:01:16;49.40;;;28.00;;
80247;SDS011;69560;52.206;21.018;2024-01-30T06:03:43;51.70;;;29.30;;
80247;SDS011;69560;52.206;21.018;2024-01-30T06:06:09;54.10;;;29.80;;
80247;SDS011;69560;52.206;21.018;2024-01-30T06:08:36;57.50;;;30.70;;
80247;SDS011;69560;52.206;21.018;2024-01-30T06:11:02;53.50;;;30.20;;
80247;SDS011;69560;52.206;21.018;2024-01-30T06:13:29;53.20;;;30.10;;
80247;SDS011;69560;52.206;21.018;2024-01-30T06:15:57;49.60;;;28.90;;
80247;SDS011;69560;52.206;21.018;2024-01-30T06:18:24;45.80;;;26.70;;
80247;SDS011;69560;52.206;21.018;2024-01-30T06:20:52;55.50;;;29.20;;
80247;SDS011;69560;52.206;21.018;2024-01-30T06:23:19;47.80;;;27.30;;
80247;SDS011;69560;52.206;21.018;2024-01-30T06:25:45;53.50;;;30.40;;
80247;SDS011;69560;52.206;21.018;2024-01-30T06:28:12;54.50;;;30.00;;
80247;SDS011;69560;52.206;21.018;2024-01-30T06:30:38;46.60;;;27.50;;
80247;SDS011;69560;52.206;21.018;2024-01-30T06:33:05;50.10;;;29.90;;
80247;SDS011;69560;52.206;21.018;2024-01-30T06:35:31;52.90;;;29.40;;
80247;SDS011;69560;52.206;21.018;2024-01-30T06:37:58;55.80;;;28.80;;
80247;SDS011;69560;52.206;21.018;2024-01-30T06:40:24;57.30;;;29.50;;
80247;SDS011;69560;52.206;21.018;2024-01-30T06:42:51;49.80;;;29.10;;
80247;SDS011;69560;52.206;21.018;2024-01-30T06:45:17;53.90;;;28.60;;
80247;SDS011;69560;52.206;21.018;2024-01-30T06:47:44;53.00;;;29.50;;
80247;SDS011;69560;52.206;21.018;2024-01-30T06:50:10;47.30;;;27.50;;
80247;SDS011;69560;52.206;21.018;2024-01-30T06:52:37;52.40;;;30.40;;
80247;SDS011;69560;52.206;21.018;2024-01-30T06:55:03;53.90;;;30.30;;
80247;SDS011;69560;52.206;21.018;2024-01-30T06:57:30;51.10;;;28.70;;
80247;SDS011;69560;52.206;21.018;2024-01-30T06:59:57;48.40;;;26.60;;
80247;SDS011;69560;52.206;21.018;2024-01-30T07:02:23;54.70;;;30.10;;
80247;SDS011;69560;52.206;21.018;2024-01-30T07:04:50;52.00;;;30.10;;
80247;SDS011;69560;52.206;21.018;2024-01-30T07:07:16;47.20;;;28.40;;
80247;SDS011;69560;52.206;21.018;2024-01-30T07:09:43;51.70;;;29.90;;
80247;SDS011;69560;52.206;21.018;2024-01-30T07:12:09;55.00;;;30.80;;
80247;SDS011;69560;52.206;21.018;2024-01-30T07:14:36;50.90;;;30.40;;
80247;SDS011;69560;52.206;21.018;2024-01-30T07:17:03;54.70;;;30.30;;
80247;SDS011;69560;52.206;21.018;2024-01-30T07:19:32;53.20;;;28.60;;
80247;SDS011;69560;52.206;21.018;2024-01-30T07:21:58;51.50;;;29.20;;
80247;SDS011;69560;52.206;21.018;2024-01-30T07:24:25;52.50;;;29.90;;
80247;SDS011;69560;52.206;21.018;2024-01-30T07:26:52;51.50;;;30.10;;
80247;SDS011;69560;52.206;21.018;2024-01-30T07:29:19;53.00;;;30.50;;
80247;SDS011;69560;52.206;21.018;2024-01-30T07:31:45;51.50;;;29.90;;
80247;SDS011;69560;52.206;21.018;2024-01-30T07:34:12;52.50;;;30.90;;
80247;SDS011;69560;52.206;21.018;2024-01-30T07:36:38;53.00;;;31.20;;
80247;SDS011;69560;52.206;21.018;2024-01-30T07:39:05;51.40;;;29.10;;
80247;SDS011;69560;52.206;21.018;2024-01-30T07:41:31;54.50;;;31.10;;
80247;SDS011;69560;52.206;21.018;2024-01-30T07:43:58;53.30;;;30.30;;
80247;SDS011;69560;52.206;21.018;2024-01-30T07:46:24;49.80;;;28.60;;
80247;SDS011;69560;52.206;21.018;2024-01-30T07:48:51;50.10;;;30.40;;
80247;SDS011;69560;52.206;21.018;2024-01-30T07:51:17;52.60;;;30.90;;
80247;SDS011;69560;52.206;21.018;2024-01-30T07:53:43;49.20;;;29.30;;
80247;SDS011;69560;52.206;21.018;2024-01-30T07:56:11;47.60;;;29.20;;
80247;SDS011;69560;52.206;21.018;2024-01-30T07:58:37;55.90;;;29.30;;
80247;SDS011;69560;52.206;21.018;2024-01-30T08:01:04;43.70;;;25.50;;
80247;SDS011;69560;52.206;21.018;2024-01-30T08:03:30;48.40;;;28.90;;
80247;SDS011;69560;52.206;21.018;2024-01-30T08:05:57;50.60;;;29.40;;
80247;SDS011;69560;52.206;21.018;2024-01-30T08:08:23;52.50;;;30.00;;
80247;SDS011;69560;52.206;21.018;2024-01-30T08:10:50;51.20;;;29.80;;
80247;SDS011;69560;52.206;21.018;2024-01-30T08:13:16;48.10;;;27.50;;
80247;SDS011;69560;52.206;21.018;2024-01-30T08:15:46;51.30;;;29.20;;
80247;SDS011;69560;52.206;21.018;2024-01-30T08:18:12;47.80;;;29.10;;
80247;SDS011;69560;52.206;21.018;2024-01-30T08:20:40;45.50;;;27.60;;
80247;SDS011;69560;52.206;21.018;2024-01-30T08:23:06;40.30;;;25.40;;
80247;SDS011;69560;52.206;21.018;2024-01-30T08:25:32;42.80;;;25.40;;
80247;SDS011;69560;52.206;21.018;2024-01-30T08:27:59;48.30;;;27.10;;
80247;SDS011;69560;52.206;21.018;2024-01-30T08:30:26;42.00;;;25.80;;
80247;SDS011;69560;52.206;21.018;2024-01-30T08:32:53;37.30;;;23.00;;
80247;SDS011;69560;52.206;21.018;2024-01-30T08:35:19;40.70;;;24.60;;
80247;SDS011;69560;52.206;21.018;2024-01-30T08:37:45;40.10;;;24.70;;
80247;SDS011;69560;52.206;21.018;2024-01-30T08:40:12;37.20;;;24.20;;
80247;SDS011;69560;52.206;21.018;2024-01-30T08:42:39;41.30;;;24.40;;
80247;SDS011;69560;52.206;21.018;2024-01-30T08:45:05;34.70;;;23.10;;
80247;SDS011;69560;52.206;21.018;2024-01-30T08:47:32;35.80;;;24.40;;
80247;SDS011;69560;52.206;21.018;2024-01-30T08:49:59;32.80;;;21.60;;
80247;SDS011;69560;52.206;21.018;2024-01-30T08:52:25;33.30;;;21.90;;
80247;SDS011;69560;52.206;21.018;2024-01-30T08:54:52;35.80;;;23.30;;
80247;SDS011;69560;52.206;21.018;2024-01-30T08:57:18;34.60;;;22.10;;
80247;SDS011;69560;52.206;21.018;2024-01-30T08:59:45;34.10;;;23.60;;
80247;SDS011;69560;52.206;21.018;2024-01-30T09:02:13;32.70;;;22.10;;
80247;SDS011;69560;52.206;21.018;2024-01-30T09:04:42;36.60;;;21.30;;
80247;SDS011;69560;52.206;21.018;2024-01-30T09:07:09;32.10;;;21.00;;
80247;SDS011;69560;52.206;21.018;2024-01-30T09:09:37;30.30;;;21.80;;
80247;SDS011;69560;52.206;21.018;2024-01-30T09:12:06;34.80;;;22.00;;
80247;SDS011;69560;52.206;21.018;2024-01-30T09:14:35;31.80;;;21.40;;
80247;SDS011;69560;52.206;21.018;2024-01-30T09:17:03;29.40;;;21.20;;
80247;SDS011;69560;52.206;21.018;2024-01-30T09:19:30;28.00;;;21.20;;
80247;SDS011;69560;52.206;21.018;2024-01-30T09:21:57;29.20;;;20.00;;
80247;SDS011;69560;52.206;21.018;2024-01-30T09:24:24;32.40;;;21.20;;
80247;SDS011;69560;52.206;21.018;2024-01-30T09:26:52;28.20;;;21.20;;
80247;SDS011;69560;52.206;21.018;2024-01-30T09:29:18;28.30;;;20.20;;
80247;SDS011;69560;52.206;21.018;2024-01-30T09:31:48;26.90;;;19.90;;
80247;SDS011;69560;52.206;21.018;2024-01-30T09:34:14;26.40;;;19.70;;
80247;SDS011;69560;52.206;21.018;2024-01-30T09:36:41;25.10;;;18.80;;
80247;SDS011;69560;52.206;21.018;2024-01-30T09:39:07;24.20;;;18.10;;
80247;SDS011;69560;52.206;21.018;2024-01-30T09:41:35;28.20;;;19.40;;
80247;SDS011;69560;52.206;21.018;2024-01-30T09:44:11;24.70;;;19.30;;
80247;SDS011;69560;52.206;21.018;2024-01-30T09:46:39;21.80;;;16.50;;
80247;SDS011;69560;52.206;21.018;2024-01-30T09:49:06;27.40;;;18.00;;
80247;SDS011;69560;52.206;21.018;2024-01-30T09:51:35;26.70;;;18.40;;
80247;SDS011;69560;52.206;21.018;2024-01-30T09:54:02;23.60;;;17.10;;
80247;SDS011;69560;52.206;21.018;2024-01-30T09:56:29;23.40;;;17.40;;
80247;SDS011;69560;52.206;21.018;2024-01-30T09:58:55;22.60;;;16.10;;
80247;SDS011;69560;52.206;21.018;2024-01-30T10:01:22;25.80;;;17.80;;
80247;SDS011;69560;52.206;21.018;2024-01-30T10:03:50;21.50;;;17.30;;
80247;SDS011;69560;52.206;21.018;2024-01-30T10:06:18;22.10;;;16.40;;
80247;SDS011;69560;52.206;21.018;2024-01-30T10:08:47;20.90;;;16.40;;
80247;SDS011;69560;52.206;21.018;2024-01-30T10:11:13;28.00;;;17.50;;
80247;SDS011;69560;52.206;21.018;2024-01-30T10:13:39;24.60;;;17.70;;
80247;SDS011;69560;52.206;21.018;2024-01-30T10:16:06;23.50;;;17.10;;
80247;SDS011;69560;52.206;21.018;2024-01-30T10:18:33;23.10;;;16.90;;
80247;SDS011;69560;52.206;21.018;2024-01-30T10:20:59;23.00;;;17.50;;
80247;SDS011;69560;52.206;21.018;2024-01-30T10:23:26;23.80;;;17.10;;
80247;SDS011;69560;52.206;21.018;2024-01-30T10:25:52;20.80;;;16.50;;
80247;SDS011;69560;52.206;21.018;2024-01-30T10:28:19;24.30;;;16.80;;
80247;SDS011;69560;52.206;21.018;2024-01-30T10:30:46;20.80;;;16.40;;
80247;SDS011;69560;52.206;21.018;2024-01-30T10:33:15;20.70;;;17.00;;
80247;SDS011;69560;52.206;21.018;2024-01-30T10:35:43;22.70;;;16.60;;
80247;SDS011;69560;52.206;21.018;2024-01-30T10:38:11;21.90;;;16.00;;
80247;SDS011;69560;52.206;21.018;2024-01-30T10:40:41;21.50;;;16.90;;
80247;SDS011;69560;52.206;21.018;2024-01-30T10:43:09;21.30;;;16.10;;
80247;SDS011;69560;52.206;21.018;2024-01-30T10:48:06;27.50;;;17.10;;
80247;SDS011;69560;52.206;21.018;2024-01-30T10:50:35;24.20;;;17.70;;
80247;SDS011;69560;52.206;21.018;2024-01-30T10:53:03;21.40;;;16.30;;
80247;SDS011;69560;52.206;21.018;2024-01-30T10:55:30;19.90;;;16.20;;
80247;SDS011;69560;52.206;21.018;2024-01-30T10:57:57;23.30;;;16.50;;
80247;SDS011;69560;52.206;21.018;2024-01-30T11:00:25;23.20;;;18.00;;
80247;SDS011;69560;52.206;21.018;2024-01-30T11:02:52;21.20;;;17.00;;
80247;SDS011;69560;52.206;21.018;2024-01-30T11:05:25;20.70;;;15.50;;
80247;SDS011;69560;52.206;21.018;2024-01-30T11:07:53;24.00;;;16.70;;
80247;SDS011;69560;52.206;21.018;2024-01-30T11:10:20;22.80;;;16.40;;
80247;SDS011;69560;52.206;21.018;2024-01-30T11:12:47;22.10;;;16.20;;
80247;SDS011;69560;52.206;21.018;2024-01-30T11:15:16;21.50;;;16.10;;
80247;SDS011;69560;52.206;21.018;2024-01-30T11:17:44;22.60;;;16.80;;
80247;SDS011;69560;52.206;21.018;2024-01-30T11:22:47;22.30;;;17.00;;
80247;SDS011;69560;52.206;21.018;2024-01-30T11:25:14;26.80;;;18.30;;
80247;SDS011;69560;52.206;21.018;2024-01-30T11:27:43;22.70;;;16.60;;
80247;SDS011;69560;52.206;21.018;2024-01-30T11:30:10;26.20;;;17.30;;
80247;SDS011;69560;52.206;21.018;2024-01-30T11:32:57;24.90;;;17.70;;
80247;SDS011;69560;52.206;21.018;2024-01-30T11:38:11;20.60;;;16.40;;
80247;SDS011;69560;52.206;21.018;2024-01-30T11:40:39;22.30;;;17.40;;
80247;SDS011;69560;52.206;21.018;2024-01-30T11:43:07;29.80;;;20.70;;
80247;SDS011;69560;52.206;21.018;2024-01-30T11:45:35;23.30;;;17.80;;
80247;SDS011;69560;52.206;21.018;2024-01-30T11:48:03;26.40;;;17.60;;
80247;SDS011;69560;52.206;21.018;2024-01-30T11:50:30;24.70;;;16.50;;
80247;SDS011;69560;52.206;21.018;2024-01-30T11:52:58;25.00;;;16.70;;
80247;SDS011;69560;52.206;21.018;2024-01-30T11:55:26;22.90;;;16.10;;
80247;SDS011;69560;52.206;21.018;2024-01-30T11:57:56;21.50;;;16.30;;
80247;SDS011;69560;52.206;21.018;2024-01-30T12:00:23;21.60;;;15.50;;
80247;SDS011;69560;52.206;21.018;2024-01-30T12:02:51;21.60;;;16.40;;
80247;SDS011;69560;52.206;21.018;2024-01-30T12:05:24;18.30;;;14.90;;
80247;SDS011;69560;52.206;21.018;2024-01-30T12:10:18;20.40;;;15.10;;
80247;SDS011;69560;52.206;21.018;2024-01-30T12:12:46;20.50;;;15.80;;
80247;SDS011;69560;52.206;21.018;2024-01-30T12:15:13;18.50;;;15.10;;
80247;SDS011;69560;52.206;21.018;2024-01-30T12:17:40;20.70;;;14.70;;
80247;SDS011;69560;52.206;21.018;2024-01-30T12:22:38;18.40;;;14.50;;
80247;SDS011;69560;52.206;21.018;2024-01-30T12:25:09;20.60;;;14.10;;
80247;SDS011;69560;52.206;21.018;2024-01-30T12:27:37;19.20;;;14.80;;
80247;SDS011;69560;52.206;21.018;2024-01-30T12:30:07;17.50;;;13.80;;
80247;SDS011;69560;52.206;21.018;2024-01-30T12:32:39;18.60;;;14.70;;
80247;SDS011;69560;52.206;21.018;2024-01-30T12:35:13;19.40;;;14.70;;
80247;SDS011;69560;52.206;21.018;2024-01-30T12:37:41;19.70;;;14.40;;
80247;SDS011;69560;52.206;21.018;2024-01-30T12:40:16;17.20;;;13.70;;
80247;SDS011;69560;52.206;21.018;2024-01-30T12:42:45;16.50;;;13.60;;
80247;SDS011;69560;52.206;21.018;2024-01-30T12:45:16;16.80;;;14.20;;
80247;SDS011;69560;52.206;21.018;2024-01-30T12:47:46;18.00;;;14.20;;
80247;SDS011;69560;52.206;21.018;2024-01-30T12:50:13;18.30;;;14.20;;
80247;SDS011;69560;52.206;21.018;2024-01-30T12:52:42;18.20;;;13.80;;
80247;SDS011;69560;52.206;21.018;2024-01-30T12:55:09;15.00;;;12.60;;
80247;SDS011;69560;52.206;21.018;2024-01-30T12:57:35;17.40;;;14.30;;
80247;SDS011;69560;52.206;21.018;2024-01-30T13:00:02;18.20;;;15.20;;
80247;SDS011;69560;52.206;21.018;2024-01-30T13:02:29;19.10;;;14.40;;
80247;SDS011;69560;52.206;21.018;2024-01-30T13:05:01;20.90;;;14.10;;
80247;SDS011;69560;52.206;21.018;2024-01-30T13:07:31;18.50;;;15.00;;
80247;SDS011;69560;52.206;21.018;2024-01-30T13:09:57;22.10;;;15.60;;
80247;SDS011;69560;52.206;21.018;2024-01-30T13:12:29;22.20;;;15.50;;
80247;SDS011;69560;52.206;21.018;2024-01-30T13:14:58;21.10;;;16.50;;
80247;SDS011;69560;52.206;21.018;2024-01-30T13:17:27;24.00;;;15.60;;
80247;SDS011;69560;52.206;21.018;2024-01-30T13:19:54;21.70;;;16.00;;
80247;SDS011;69560;52.206;21.018;2024-01-30T13:22:23;24.00;;;16.60;;
80247;SDS011;69560;52.206;21.018;2024-01-30T13:24:50;20.70;;;15.30;;
80247;SDS011;69560;52.206;21.018;2024-01-30T13:27:20;25.70;;;16.20;;
80247;SDS011;69560;52.206;21.018;2024-01-30T13:29:46;21.30;;;15.80;;
80247;SDS011;69560;52.206;21.018;2024-01-30T13:32:13;25.60;;;16.30;;
80247;SDS011;69560;52.206;21.018;2024-01-30T13:34:39;24.90;;;15.90;;
80247;SDS011;69560;52.206;21.018;2024-01-30T13:37:07;22.00;;;15.50;;
80247;SDS011;69560;52.206;21.018;2024-01-30T13:39:33;22.30;;;15.90;;
80247;SDS011;69560;52.206;21.018;2024-01-30T13:42:00;25.10;;;16.40;;
80247;SDS011;69560;52.206;21.018;2024-01-30T13:44:26;26.00;;;16.00;;
80247;SDS011;69560;52.206;21.018;2024-01-30T13:46:53;22.70;;;15.90;;
80247;SDS011;69560;52.206;21.018;2024-01-30T13:49:21;25.60;;;16.90;;
80247;SDS011;69560;52.206;21.018;2024-01-30T13:51:50;24.80;;;17.40;;
80247;SDS011;69560;52.206;21.018;2024-01-30T13:54:17;30.60;;;20.00;;
80247;SDS011;69560;52.206;21.018;2024-01-30T13:56:44;26.50;;;17.00;;
80247;SDS011;69560;52.206;21.018;2024-01-30T13:59:11;27.40;;;16.70;;
80247;SDS011;69560;52.206;21.018;2024-01-30T14:01:38;23.70;;;15.70;;
80247;SDS011;69560;52.206;21.018;2024-01-30T14:04:04;24.80;;;16.70;;
80247;SDS011;69560;52.206;21.018;2024-01-30T14:06:31;25.80;;;17.10;;
80247;SDS011;69560;52.206;21.018;2024-01-30T14:08:57;26.40;;;17.30;;
80247;SDS011;69560;52.206;21.018;2024-01-30T14:11:24;24.30;;;16.80;;
80247;SDS011;69560;52.206;21.018;2024-01-30T14:13:51;27.90;;;17.10;;
80247;SDS011;69560;52.206;21.018;2024-01-30T14:16:19;25.50;;;16.50;;
80247;SDS011;69560;52.206;21.018;2024-01-30T14:18:46;24.50;;;17.10;;
80247;SDS011;69560;52.206;21.018;2024-01-30T14:21:12;27.40;;;17.40;;